Time;durP1;ratioP1;P1;durP2;ratioP2;P2;SDS_P1;SDS_P2;PMS_P1;PMS_P2;Temp;Humidity;BMP_temperature;BMP_pressure;BME280_temperature;BME280_humidity;BME280_pressure;Samples;Min_cycle;Max_cycle;Signal;HPM_P1;HPM_P2
2021/08/10 00:00:08;;;;;;;11.45;6.03;;;;;;;21.02;84.11;99142.55;1870629;76;22582;-63
2021/08/10 00:03:03;;;;;;;12.03;6.65;;;;;;;21.01;84.23;99153.08;1889927;76;22116;-61
2021/08/10 00:05:58;;;;;;;8.60;7.05;;;;;;;20.99;84.30;99154.91;1833405;76;22205;-70
2021/08/10 00:08:33;;;;;;;11.50;6.87;;;;;;;20.95;84.51;99154.12;1865827;76;22248;-59
2021/08/10 00:11:07;;;;;;;8.93;6.20;;;;;;;20.91;84.78;99156.41;1832813;76;22219;-64
2021/08/10 00:13:42;;;;;;;8.55;6.70;;;;;;;20.95;84.74;99151.50;1870620;76;22112;-59
2021/08/10 00:16:17;;;;;;;9.65;6.78;;;;;;;20.96;84.46;99154.97;1870609;76;22124;-59
2021/08/10 00:18:58;;;;;;;9.30;6.85;;;;;;;20.86;84.67;99147.80;1869781;76;22176;-64
2021/08/10 00:21:34;;;;;;;13.00;7.15;;;;;;;20.80;85.12;99160.65;1889881;76;22582;-66
2021/08/10 00:24:29;;;;;;;10.18;6.40;;;;;;;20.77;85.28;99163.81;1870346;76;22160;-60
2021/08/10 00:27:04;;;;;;;8.83;7.00;;;;;;;20.71;85.43;99162.23;1870637;76;22109;-69
2021/08/10 00:29:59;;;;;;;9.60;7.20;;;;;;;20.65;85.56;99156.28;1870507;76;22172;-56
2021/08/10 00:32:33;;;;;;;11.08;7.03;;;;;;;20.58;85.93;99154.26;1870652;76;22109;-64
2021/08/10 00:35:09;;;;;;;8.65;6.70;;;;;;;20.54;86.18;99149.56;1870624;76;22145;-75
2021/08/10 00:37:44;;;;;;;9.45;6.95;;;;;;;20.52;86.39;99146.08;1854794;76;27909;-66
2021/08/10 00:40:20;;;;;;;9.53;6.95;;;;;;;20.58;86.37;99159.08;1870653;76;22169;-64
2021/08/10 00:43:37;;;;;;;9.50;7.05;;;;;;;20.66;86.04;99156.67;1870562;76;22187;-63
2021/08/10 00:46:14;;;;;;;7.83;6.08;;;;;;;20.60;86.01;99149.84;1870624;76;22185;-62
2021/08/10 00:49:09;;;;;;;10.30;6.60;;;;;;;20.55;86.09;99153.03;1870581;76;22173;-60
2021/08/10 00:52:04;;;;;;;11.05;7.05;;;;;;;20.53;86.17;99146.51;1889923;76;22521;-53
2021/08/10 00:54:40;;;;;;;9.43;7.47;;;;;;;20.52;86.02;99147.39;1889916;76;22547;-65
2021/08/10 00:57:35;;;;;;;8.38;6.20;;;;;;;20.43;86.37;99151.59;1889901;76;22148;-69
2021/08/10 01:00:12;;;;;;;9.78;6.33;;;;;;;20.38;86.54;99153.01;1870539;76;22583;-61
2021/08/10 01:02:48;;;;;;;12.53;6.37;;;;;;;20.43;86.51;99156.83;1889879;76;22224;-67
2021/08/10 01:05:23;;;;;;;8.88;6.95;;;;;;;20.42;86.43;99146.37;1889937;76;22140;-66
2021/08/10 01:08:06;;;;;;;10.53;7.20;;;;;;;20.33;86.55;99159.28;1870633;76;22136;-60
2021/08/10 01:11:07;;;;;;;10.15;7.25;;;;;;;20.24;86.78;99168.67;1889886;76;22167;-59
2021/08/10 01:14:00;;;;;;;11.30;6.90;;;;;;;20.15;87.18;99157.53;1870616;76;22101;-60
2021/08/10 01:17:03;;;;;;;8.18;6.17;;;;;;;20.05;87.51;99153.41;1889926;76;22131;-63
2021/08/10 01:20:13;;;;;;;8.23;6.78;;;;;;;20.00;87.86;99166.19;1889928;76;22124;-55
2021/08/10 01:22:52;;;;;;;11.25;7.10;;;;;;;20.02;88.03;99157.39;1870660;76;22112;-57
2021/08/10 01:25:32;;;;;;;8.03;6.15;;;;;;;20.05;88.07;99154.72;1870523;76;22562;-57
2021/08/10 01:28:49;;;;;;;8.23;6.20;;;;;;;20.06;87.87;99156.43;1870543;76;22566;-59
2021/08/10 01:31:41;;;;;;;9.08;6.95;;;;;;;20.05;87.90;99161.27;1870594;76;22128;-55
2021/08/10 01:34:39;;;;;;;13.58;7.22;;;;;;;20.04;88.10;99154.29;1870744;76;22133;-57
2021/08/10 01:37:29;;;;;;;9.53;6.35;;;;;;;20.09;87.66;99154.19;1870701;76;22101;-65
2021/08/10 01:40:18;;;;;;;10.43;6.55;;;;;;;20.04;87.70;99145.13;1889907;76;22558;-62
2021/08/10 01:43:14;;;;;;;9.65;7.47;;;;;;;19.99;87.91;99149.61;1870532;76;22170;-70
2021/08/10 01:46:08;;;;;;;9.50;6.70;;;;;;;19.93;88.14;99155.02;1870558;76;22563;-64
2021/08/10 01:48:44;;;;;;;9.70;6.40;;;;;;;19.83;88.42;99149.59;1890006;76;22559;-65
2021/08/10 01:51:38;;;;;;;9.30;6.75;;;;;;;19.78;88.71;99144.91;1870736;76;22117;-63
2021/08/10 01:54:15;;;;;;;9.18;7.25;;;;;;;19.77;88.91;99149.28;1870655;76;22137;-59
2021/08/10 01:56:50;;;;;;;9.10;6.58;;;;;;;19.69;89.12;99132.45;1889949;76;20351;-63
2021/08/10 01:59:49;;;;;;;9.48;7.03;;;;;;;19.75;89.38;99130.58;1870458;76;22176;-57
2021/08/10 02:02:24;;;;;;;8.03;7.05;;;;;;;19.76;89.13;99135.77;1889923;76;22108;-52
2021/08/10 02:05:22;;;;;;;9.43;7.45;;;;;;;19.72;89.23;99135.44;1873808;76;28032;-62
2021/08/10 02:08:22;;;;;;;12.68;7.60;;;;;;;19.69;89.31;99132.45;1834821;77;22144;-64
2021/08/10 02:10:58;;;;;;;11.55;7.60;;;;;;;19.58;89.66;99133.09;1889909;76;22538;-60
2021/08/10 02:13:34;;;;;;;8.93;7.83;;;;;;;19.49;89.93;99124.16;1870546;76;22140;-57
2021/08/10 02:16:31;;;;;;;9.13;6.45;;;;;;;19.47;90.23;99135.95;1858382;76;22166;-58
2021/08/10 02:19:08;;;;;;;8.60;7.37;;;;;;;19.43;90.51;99136.05;1855630;76;22166;-58
2021/08/10 02:21:50;;;;;;;10.08;7.12;;;;;;;19.35;90.68;99140.16;1885239;76;22136;-54
2021/08/10 02:25:08;;;;;;;9.68;6.72;;;;;;;19.28;91.18;99137.25;1861899;76;22236;-53
2021/08/10 02:27:58;;;;;;;9.48;8.05;;;;;;;19.27;91.28;99137.70;1888836;76;22192;-60
2021/08/10 02:30:56;;;;;;;9.80;7.70;;;;;;;19.21;91.42;99141.77;1889447;76;22144;-59
2021/08/10 02:33:50;;;;;;;9.33;6.90;;;;;;;19.07;91.96;99130.73;1854583;76;27894;-53
2021/08/10 02:36:56;;;;;;;11.00;7.22;;;;;;;19.01;92.45;99136.95;1889849;76;22216;-56
2021/08/10 02:39:55;;;;;;;11.12;7.20;;;;;;;18.90;93.01;99131.52;1889833;76;22163;-57
2021/08/10 02:42:30;;;;;;;10.28;7.92;;;;;;;18.82;93.56;99128.59;1870631;76;22109;-56
2021/08/10 02:45:06;;;;;;;8.53;7.50;;;;;;;18.75;93.90;99127.02;1870536;76;20208;-56
2021/08/10 02:47:53;;;;;;;9.10;7.33;;;;;;;18.73;94.20;99135.75;1870628;76;22547;-52
2021/08/10 02:50:32;;;;;;;17.77;7.50;;;;;;;18.70;94.44;99138.41;1889909;76;22147;-57
2021/08/10 02:53:28;;;;;;;8.80;7.10;;;;;;;18.66;94.70;99135.85;1889903;76;22116;-56
2021/08/10 02:56:27;;;;;;;16.48;8.25;;;;;;;18.64;94.98;99134.16;1889875;76;20096;-56
2021/08/10 02:59:32;;;;;;;11.12;7.60;;;;;;;18.54;94.77;99132.61;1889823;76;22551;-61
2021/08/10 03:02:15;;;;;;;13.78;7.83;;;;;;;18.53;95.03;99143.97;1889897;76;22251;-53
2021/08/10 03:05:10;;;;;;;10.48;7.92;;;;;;;18.51;95.57;99137.91;1870531;76;22575;-54
2021/08/10 03:08:01;;;;;;;10.95;8.25;;;;;;;18.59;95.54;99149.07;1870416;76;22193;-60
2021/08/10 03:10:57;;;;;;;10.23;8.10;;;;;;;18.56;96.00;99143.45;1856613;76;22154;-56
2021/08/10 03:13:53;;;;;;;12.73;8.18;;;;;;;18.62;95.58;99139.86;1889276;76;22606;-62
2021/08/10 03:16:48;;;;;;;11.60;8.68;;;;;;;18.61;95.68;99149.91;1888203;76;22215;-60
2021/08/10 03:19:26;;;;;;;9.83;7.50;;;;;;;18.56;95.87;99147.83;1869536;76;23310;-56
2021/08/10 03:22:03;;;;;;;13.60;9.03;;;;;;;18.61;95.73;99139.45;1870517;76;22226;-62
2021/08/10 03:25:02;;;;;;;12.00;8.43;;;;;;;18.62;95.72;99143.77;1870372;76;22181;-60
2021/08/10 03:27:39;;;;;;;10.28;8.35;;;;;;;18.62;95.71;99143.77;1889975;76;22131;-57
2021/08/10 03:30:34;;;;;;;12.40;8.18;;;;;;;18.63;95.66;99143.76;1870497;76;20097;-61
2021/08/10 03:33:29;;;;;;;11.70;8.43;;;;;;;18.66;95.57;99152.84;1889877;76;22112;-59
2021/08/10 03:36:05;;;;;;;10.25;9.15;;;;;;;18.66;95.73;99154.16;1870681;76;22187;-57
2021/08/10 03:39:01;;;;;;;9.70;8.05;;;;;;;18.72;95.27;99154.48;1870445;76;22143;-63
2021/08/10 03:41:56;;;;;;;11.38;7.95;;;;;;;18.75;95.14;99157.09;1870561;76;22176;-54
2021/08/10 03:44:32;;;;;;;10.65;8.05;;;;;;;18.76;95.06;99149.65;1854725;76;27947;-61
2021/08/10 03:47:28;;;;;;;9.25;7.33;;;;;;;18.84;94.79;99147.73;1854611;76;27916;-61
2021/08/10 03:50:25;;;;;;;8.75;7.37;;;;;;;18.95;94.38;99150.59;1870529;76;22148;-54
2021/08/10 03:53:02;;;;;;;11.05;8.23;;;;;;;18.95;94.18;99151.89;1870459;76;22168;-56
2021/08/10 03:56:00;;;;;;;9.65;7.80;;;;;;;19.00;93.95;99151.36;1854743;76;27933;-63
2021/08/10 03:58:57;;;;;;;8.35;7.08;;;;;;;19.14;93.47;99151.09;1889932;76;22147;-56
2021/08/10 04:01:54;;;;;;;10.03;6.97;;;;;;;19.21;92.76;99158.78;1889905;76;22127;-61
2021/08/10 04:04:30;;;;;;;9.45;7.67;;;;;;;19.17;92.39;99149.26;1870630;76;22221;-61
2021/08/10 04:07:26;;;;;;;10.08;8.05;;;;;;;19.18;92.29;99150.97;1870483;76;22151;-51
2021/08/10 04:10:21;;;;;;;11.15;7.33;;;;;;;19.20;92.04;99147.87;1870471;76;22105;-58
2021/08/10 04:12:56;;;;;;;14.40;8.03;;;;;;;19.21;91.89;99138.27;1889950;76;22104;-60
2021/08/10 04:15:53;;;;;;;13.70;9.03;;;;;;;19.18;91.86;99151.42;1889901;76;22146;-57
2021/08/10 04:18:52;;;;;;;12.73;7.50;;;;;;;19.19;91.69;99147.48;1870414;76;22140;-59
2021/08/10 04:21:47;;;;;;;10.78;8.08;;;;;;;19.21;91.63;99140.88;1890041;76;22542;-60
2021/08/10 04:24:30;;;;;;;11.22;7.42;;;;;;;19.24;91.51;99146.08;1889968;76;22205;-60
2021/08/10 04:27:05;;;;;;;9.38;7.70;;;;;;;19.22;91.45;99142.17;1854773;76;27918;-64
2021/08/10 04:29:40;;;;;;;11.22;8.08;;;;;;;19.32;91.26;99147.22;1870665;76;22116;-59
2021/08/10 04:32:36;;;;;;;11.85;8.40;;;;;;;19.38;91.06;99149.23;1889877;76;22535;-56
2021/08/10 04:35:11;;;;;;;9.48;7.58;;;;;;;19.45;90.75;99148.67;1889958;76;22187;-57
2021/08/10 04:37:45;;;;;;;9.45;7.90;;;;;;;19.51;90.33;99144.59;1870678;76;22136;-65
2021/08/10 04:40:20;;;;;;;12.28;7.83;;;;;;;19.61;90.01;99148.72;1889969;76;22131;-57
2021/08/10 04:42:58;;;;;;;10.68;7.15;;;;;;;19.66;89.75;99153.41;1870404;76;22136;-60
2021/08/10 04:46:13;;;;;;;10.13;7.62;;;;;;;19.83;89.25;99148.27;1870372;75;22599;-55
2021/08/10 04:48:49;;;;;;;9.63;7.60;;;;;;;19.91;88.69;99146.33;1870662;76;22113;-63
2021/08/10 04:51:43;;;;;;;12.33;7.37;;;;;;;19.97;88.25;99139.61;1889880;76;22227;-62
2021/08/10 04:54:18;;;;;;;9.88;7.40;;;;;;;20.00;87.97;99143.50;1870697;76;22105;-56
2021/08/10 04:57:13;;;;;;;11.85;7.28;;;;;;;20.06;87.56;99142.02;1870577;76;22121;-62
2021/08/10 04:59:50;;;;;;;9.25;7.22;;;;;;;20.10;87.37;99142.83;1889920;76;22168;-57
2021/08/10 05:02:24;;;;;;;9.25;7.53;;;;;;;20.18;87.14;99142.63;1889999;76;22115;-57
2021/08/10 05:05:18;;;;;;;10.00;7.50;;;;;;;20.31;86.75;99130.93;1870602;76;22604;-59
2021/08/10 05:07:53;;;;;;;9.73;7.95;;;;;;;20.37;86.34;99126.82;1870628;76;22140;-55
2021/08/10 05:10:30;;;;;;;10.03;8.20;;;;;;;20.37;86.19;99126.37;1870693;76;22101;-61
2021/08/10 05:13:05;;;;;;;11.05;7.28;;;;;;;20.47;85.94;99136.16;1870668;76;22168;-62
2021/08/10 05:15:41;;;;;;;8.43;6.40;;;;;;;20.64;85.68;99138.84;1889928;76;22583;-60
2021/08/10 05:18:37;;;;;;;12.05;7.00;;;;;;;20.73;84.93;99137.25;1889903;76;22156;-61
2021/08/10 05:21:15;;;;;;;8.30;5.83;;;;;;;20.82;84.83;99131.77;1870751;76;22153;-62
2021/08/10 05:23:49;;;;;;;9.98;6.05;;;;;;;20.96;83.92;99132.67;1889918;76;22141;-61
2021/08/10 05:26:43;;;;;;;9.13;7.03;;;;;;;21.10;83.53;99134.91;1870589;76;22120;-58
2021/08/10 05:29:17;;;;;;;8.50;6.50;;;;;;;21.59;82.81;99133.00;1890039;76;22669;-56
2021/08/10 05:31:53;;;;;;;7.25;5.62;;;;;;;23.18;77.34;99143.82;1854655;76;27986;-63
2021/08/10 05:34:28;;;;;;;11.90;5.15;;;;;;;24.95;71.81;99133.94;1890056;76;22146;-60
2021/08/10 05:37:24;;;;;;;7.22;5.10;;;;;;;26.57;64.05;99145.13;1854660;76;28491;-55
2021/08/10 05:39:59;;;;;;;7.17;4.72;;;;;;;27.53;59.89;99150.63;1870631;76;22528;-59
2021/08/10 05:42:33;;;;;;;6.22;4.85;;;;;;;28.59;56.99;99142.77;1870618;76;22149;-61
2021/08/10 05:45:10;;;;;;;8.53;5.03;;;;;;;29.23;52.94;99154.39;1870397;76;22575;-57
2021/08/10 05:48:06;;;;;;;9.38;4.67;;;;;;;29.67;51.71;99148.06;1889827;76;22566;-57
2021/08/10 05:50:44;;;;;;;7.70;4.30;;;;;;;30.01;50.50;99162.20;1870446;76;22140;-61
2021/08/10 05:53:40;;;;;;;7.65;4.70;;;;;;;30.63;49.07;99160.31;1870679;76;22310;-56
2021/08/10 05:56:41;;;;;;;7.50;4.65;;;;;;;30.69;48.72;99163.03;1889729;76;22590;-63
2021/08/10 05:59:17;;;;;;;5.42;4.28;;;;;;;31.43;47.38;99172.57;1870565;76;22050;-52
2021/08/10 06:01:51;;;;;;;5.92;3.83;;;;;;;32.33;45.63;99173.06;1870722;76;22303;-56
2021/08/10 06:04:45;;;;;;;5.58;4.00;;;;;;;32.57;43.29;99172.57;1889888;76;22228;-62
2021/08/10 06:07:20;;;;;;;5.85;3.50;;;;;;;32.19;44.18;99178.13;1870745;76;22229;-53
2021/08/10 06:10:15;;;;;;;5.67;4.08;;;;;;;32.46;43.62;99185.00;1870484;76;22310;-61
2021/08/10 06:12:50;;;;;;;6.10;3.90;;;;;;;33.18;42.80;99184.80;1889953;76;22212;-61
2021/08/10 06:15:45;;;;;;;5.45;3.70;;;;;;;34.14;39.91;99193.58;1854742;76;32827;-55
2021/08/10 06:18:20;;;;;;;6.87;3.92;;;;;;;34.30;39.93;99189.15;1889933;76;22042;-58
2021/08/10 06:21:18;;;;;;;8.78;3.77;;;;;;;34.51;39.14;99199.88;1870363;76;22497;-61
2021/08/10 06:23:52;;;;;;;5.50;3.20;;;;;;;34.53;38.77;99193.41;1870667;76;22046;-59
2021/08/10 06:26:27;;;;;;;5.97;3.72;;;;;;;34.50;38.88;99195.02;1870687;76;22063;-62
2021/08/10 06:29:02;;;;;;;4.90;3.45;;;;;;;34.51;38.64;99185.98;1889937;76;22066;-60
2021/08/10 06:31:36;;;;;;;4.58;3.40;;;;;;;34.35;38.78;99185.09;1889875;76;22049;-56
2021/08/10 06:34:11;;;;;;;6.95;4.12;;;;;;;34.05;39.44;99187.63;1889914;76;22049;-60
2021/08/10 06:37:05;;;;;;;6.92;4.00;;;;;;;34.25;39.00;99178.81;1870579;76;22278;-56
2021/08/10 06:39:40;;;;;;;5.83;3.98;;;;;;;34.47;38.60;99182.34;1870629;76;22494;-67
2021/08/10 06:42:20;;;;;;;10.03;3.83;;;;;;;34.89;38.10;99183.72;1870718;76;22066;-54
2021/08/10 06:44:59;;;;;;;5.40;3.05;;;;;;;35.27;37.44;99189.79;1889921;76;22124;-63
2021/08/10 06:47:53;;;;;;;4.95;3.27;;;;;;;35.45;36.31;99189.98;1889968;76;22062;-62
2021/08/10 06:50:29;;;;;;;4.97;3.12;;;;;;;35.43;36.35;99187.93;1870589;76;22047;-63
2021/08/10 06:53:23;;;;;;;5.00;3.15;;;;;;;35.92;35.75;99192.94;1870586;76;22473;-57
2021/08/10 06:56:18;;;;;;;5.30;3.40;;;;;;;35.99;35.19;99192.73;1873937;76;28309;-54
2021/08/10 06:58:53;;;;;;;4.37;2.85;;;;;;;36.39;35.21;99194.48;1870633;76;22477;-64
2021/08/10 07:01:28;;;;;;;3.95;3.00;;;;;;;37.16;33.16;99188.62;1870609;76;22050;-58
2021/08/10 07:04:22;;;;;;;5.62;3.00;;;;;;;36.72;33.80;99201.77;1889881;76;22054;-61
2021/08/10 07:07:18;;;;;;;5.60;3.20;;;;;;;37.04;33.78;99187.11;1848956;76;27903;-60
2021/08/10 07:09:52;;;;;;;4.72;2.90;;;;;;;37.50;32.98;99194.77;1890009;76;22219;-55
2021/08/10 07:12:53;;;;;;;6.08;2.90;;;;;;;37.66;32.46;99195.02;1869740;76;22066;-53
2021/08/10 07:15:27;;;;;;;3.80;2.40;;;;;;;37.58;31.90;99177.42;1870681;76;22104;-57
2021/08/10 07:18:23;;;;;;;6.42;3.05;;;;;;;37.05;32.77;99180.25;1854702;76;38659;-56
2021/08/10 07:20:58;;;;;;;3.55;2.37;;;;;;;36.53;33.69;99182.43;1870643;76;22054;-64
2021/08/10 07:23:32;;;;;;;4.70;2.80;;;;;;;36.11;34.12;99185.94;1889874;76;22489;-57
2021/08/10 07:26:29;;;;;;;6.60;3.12;;;;;;;35.90;34.68;99184.66;1889883;76;22062;-61
2021/08/10 07:29:23;;;;;;;4.22;2.90;;;;;;;36.38;34.18;99182.52;1889955;76;22112;-62
2021/08/10 07:32:00;;;;;;;4.92;2.60;;;;;;;36.40;34.23;99188.10;1870713;76;22047;-60
2021/08/10 07:34:54;;;;;;;4.53;2.25;;;;;;;36.16;34.20;99187.20;1870600;76;22139;-61
2021/08/10 07:37:48;;;;;;;6.58;3.05;;;;;;;36.02;34.43;99188.42;1870682;76;22051;-60
2021/08/10 07:40:30;;;;;;;4.25;2.35;;;;;;;36.35;34.02;99180.96;1869679;76;22497;-62
2021/08/10 07:43:26;;;;;;;4.35;2.80;;;;;;;36.79;33.52;99191.25;1889847;76;22058;-57
2021/08/10 07:46:21;;;;;;;5.35;2.50;;;;;;;36.76;33.26;99204.50;1889858;76;22101;-59
2021/08/10 07:48:56;;;;;;;6.75;2.52;;;;;;;37.03;33.03;99197.51;1870751;76;22135;-61
2021/08/10 07:51:31;;;;;;;5.13;2.83;;;;;;;37.20;32.27;99186.00;1854727;76;27887;-56
2021/08/10 07:54:12;;;;;;;4.55;2.92;;;;;;;37.08;32.14;99179.11;1869788;76;22066;-60
2021/08/10 07:56:47;;;;;;;5.12;2.50;;;;;;;36.26;33.13;99193.43;1870638;76;22055;-57
2021/08/10 07:59:22;;;;;;;4.75;2.60;;;;;;;35.72;34.16;99187.18;1870608;76;22070;-64
2021/08/10 08:02:16;;;;;;;3.85;2.50;;;;;;;35.26;34.89;99192.59;1870529;76;22615;-63
2021/08/10 08:04:51;;;;;;;4.12;2.80;;;;;;;35.48;34.45;99193.73;1870618;76;22078;-56
2021/08/10 08:07:26;;;;;;;5.05;2.92;;;;;;;35.81;34.66;99189.05;1870656;76;22155;-58
2021/08/10 08:10:01;;;;;;;5.03;2.55;;;;;;;36.15;34.14;99180.62;1870636;76;22554;-57
2021/08/10 08:12:37;;;;;;;4.80;2.85;;;;;;;36.19;33.59;99187.42;1870646;76;22548;-56
2021/08/10 08:15:33;;;;;;;3.80;2.58;;;;;;;36.12;33.57;99182.25;1889864;76;22054;-64
2021/08/10 08:18:14;;;;;;;3.60;2.50;;;;;;;36.14;33.83;99184.31;1869781;76;22082;-64
2021/08/10 08:21:29;;;;;;;7.12;2.75;;;;;;;35.76;33.91;99173.84;1870211;76;22193;-58
2021/08/10 08:24:10;;;;;;;5.85;2.92;;;;;;;35.46;34.43;99181.44;1870616;76;22047;-53
2021/08/10 08:27:04;;;;;;;4.15;2.60;;;;;;;34.85;35.68;99170.20;1870603;76;22499;-55
2021/08/10 08:29:59;;;;;;;5.87;3.02;;;;;;;35.04;35.89;99177.02;1870578;76;22058;-57
2021/08/10 08:32:34;;;;;;;4.62;2.85;;;;;;;35.37;35.04;99163.83;1870674;76;22043;-57
2021/08/10 08:35:09;;;;;;;4.92;2.60;;;;;;;35.25;34.48;99166.26;1889915;76;22141;-62
2021/08/10 08:38:03;;;;;;;5.67;2.87;;;;;;;34.95;35.39;99172.45;1870547;76;22465;-55
2021/08/10 08:40:49;;;;;;;4.78;3.20;;;;;;;35.01;35.45;99166.06;1870650;76;22469;-58
2021/08/10 08:43:41;;;;;;;6.25;2.80;;;;;;;34.84;35.60;99158.64;1889922;76;22136;-57
2021/08/10 08:46:16;;;;;;;4.60;2.95;;;;;;;34.78;35.86;99168.06;1890019;76;22066;-51
2021/08/10 08:48:51;;;;;;;5.03;3.02;;;;;;;34.56;36.06;99153.43;1870685;76;22058;-57
2021/08/10 08:51:29;;;;;;;5.80;2.92;;;;;;;34.33;36.66;99156.23;1870595;76;22465;-61
2021/08/10 08:54:24;;;;;;;6.65;2.85;;;;;;;34.53;36.45;99151.02;1870731;76;22504;-54
2021/08/10 08:57:19;;;;;;;4.72;2.83;;;;;;;34.44;36.43;99150.45;1870596;76;22078;-54
2021/08/10 08:59:54;;;;;;;6.17;2.87;;;;;;;34.44;36.47;99158.50;1870672;76;22140;-63
2021/08/10 09:02:30;;;;;;;6.08;2.80;;;;;;;34.43;36.26;99164.34;1870664;76;22050;-53
2021/08/10 09:05:25;;;;;;;5.27;2.83;;;;;;;34.46;36.19;99164.58;1854807;76;27940;-60
2021/08/10 09:08:30;;;;;;;5.22;3.20;;;;;;;33.84;36.84;99162.98;1889938;76;22611;-59
2021/08/10 09:11:12;;;;;;;4.75;3.30;;;;;;;33.36;38.22;99159.28;1870648;76;22050;-57
2021/08/10 09:14:06;;;;;;;6.87;3.70;;;;;;;33.00;39.03;99153.66;1870608;76;22055;-58
2021/08/10 09:17:11;;;;;;;5.55;3.47;;;;;;;32.72;39.63;99142.94;1870846;76;22058;-61
2021/08/10 09:19:53;;;;;;;9.23;3.67;;;;;;;32.61;39.45;99149.97;1889958;76;22049;-59
2021/08/10 09:22:55;;;;;;;7.62;3.62;;;;;;;32.42;40.05;99147.00;1870587;76;22062;-57
2021/08/10 09:25:55;;;;;;;6.40;3.72;;;;;;;32.07;40.94;99141.17;1870472;76;22171;-59
2021/08/10 09:28:52;;;;;;;6.40;3.77;;;;;;;31.49;42.06;99130.28;1889884;76;22227;-56
2021/08/10 09:31:53;;;;;;;8.05;3.77;;;;;;;30.72;43.20;99132.17;1870634;76;22311;-60
2021/08/10 09:34:45;;;;;;;8.55;4.42;;;;;;;29.98;44.53;99129.64;1870654;76;22461;-56
2021/08/10 09:37:21;;;;;;;8.10;4.37;;;;;;;29.76;45.69;99124.87;1870558;76;22059;-55
2021/08/10 09:40:30;;;;;;;12.23;3.83;;;;;;;29.56;46.29;99124.31;1870695;76;22220;-57
2021/08/10 09:43:32;;;;;;;6.17;4.20;;;;;;;29.45;46.68;99121.51;1870638;76;22132;-58
2021/08/10 09:46:22;;;;;;;6.25;4.22;;;;;;;29.27;47.74;99117.37;1870617;76;22051;-61
2021/08/10 09:49:19;;;;;;;5.53;4.15;;;;;;;29.18;47.80;99118.34;1889984;76;22247;-61
2021/08/10 09:52:25;;;;;;;7.85;4.30;;;;;;;29.06;47.28;99103.65;1870739;76;22054;-61
2021/08/10 09:55:14;;;;;;;5.62;4.37;;;;;;;28.78;47.96;99110.64;1870685;76;22208;-63
2021/08/10 09:58:06;;;;;;;7.60;4.47;;;;;;;28.68;48.81;99105.52;1819522;77;28406;-57
2021/08/10 10:01:01;;;;;;;6.00;4.65;;;;;;;28.77;48.82;99104.45;1870539;76;22087;-57
2021/08/10 10:04:27;;;;;;;7.60;4.75;;;;;;;28.91;48.84;99102.77;1854571;76;28346;-60
2021/08/10 10:07:11;;;;;;;6.75;4.40;;;;;;;28.98;48.22;99082.84;1870621;76;20093;-63
2021/08/10 10:10:10;;;;;;;6.22;4.55;;;;;;;28.69;48.63;99089.47;1870520;76;22062;-51
2021/08/10 10:12:47;;;;;;;7.58;4.35;;;;;;;28.49;49.40;99091.16;1870638;76;22132;-58
2021/08/10 10:15:23;;;;;;;7.08;4.37;;;;;;;28.43;49.01;99088.38;1870590;76;22152;-63
2021/08/10 10:18:19;;;;;;;7.97;4.17;;;;;;;28.46;49.30;99094.02;1870474;76;22572;-57
2021/08/10 10:20:54;;;;;;;6.00;4.20;;;;;;;28.58;48.89;99086.63;1870636;76;22129;-55
2021/08/10 10:23:54;;;;;;;7.62;4.92;;;;;;;28.48;49.16;99086.81;1854471;76;27903;-60
2021/08/10 10:26:40;;;;;;;6.58;4.55;;;;;;;28.40;49.35;99081.09;1876767;76;22638;-55
2021/08/10 10:29:33;;;;;;;6.80;4.50;;;;;;;28.52;49.24;99072.38;1889956;76;22135;-58
2021/08/10 10:32:27;;;;;;;6.10;4.25;;;;;;;28.60;49.09;99078.11;1870635;76;22552;-58
2021/08/10 10:35:22;;;;;;;9.73;4.42;;;;;;;28.43;48.81;99080.42;1870586;76;22149;-58
2021/08/10 10:37:59;;;;;;;7.80;4.80;;;;;;;28.36;49.35;99071.96;1870652;76;22140;-62
2021/08/10 10:40:36;;;;;;;6.50;3.98;;;;;;;28.57;49.43;99072.95;1870557;76;22132;-53
2021/08/10 10:43:32;;;;;;;7.22;4.70;;;;;;;28.66;48.90;99060.45;1889905;76;22168;-59
2021/08/10 10:46:30;;;;;;;5.65;4.53;;;;;;;28.58;48.43;99068.05;1890045;76;22180;-57
2021/08/10 10:49:10;;;;;;;9.25;4.30;;;;;;;28.52;48.65;99062.64;1870679;76;20208;-59
2021/08/10 10:51:46;;;;;;;6.92;4.83;;;;;;;28.61;48.95;99059.88;1870704;76;22552;-58
2021/08/10 10:54:27;;;;;;;6.80;4.80;;;;;;;28.88;48.41;99064.45;1889957;76;22139;-58
2021/08/10 10:57:35;;;;;;;7.97;3.77;;;;;;;29.11;47.80;99064.34;1870608;76;22136;-60
2021/08/10 11:00:19;;;;;;;6.87;3.60;;;;;;;29.00;46.66;99058.33;1870770;76;22108;-57
2021/08/10 11:03:14;;;;;;;8.18;4.40;;;;;;;28.90;46.68;99062.52;1889882;76;22285;-55
2021/08/10 11:05:49;;;;;;;6.15;3.60;;;;;;;28.94;47.14;99056.92;1889989;76;22131;-61
2021/08/10 11:08:38;;;;;;;6.10;4.00;;;;;;;29.03;46.72;99054.17;1870689;76;22161;-61
2021/08/10 11:11:44;;;;;;;6.05;4.00;;;;;;;29.23;46.60;99052.91;1890059;76;22116;-53
2021/08/10 11:14:43;;;;;;;6.50;3.98;;;;;;;29.33;46.57;99050.51;1870584;76;22177;-58
2021/08/10 11:17:36;;;;;;;6.80;3.85;;;;;;;29.36;46.01;99037.02;1889980;76;22108;-57
2021/08/10 11:20:30;;;;;;;7.40;3.95;;;;;;;29.28;46.34;99040.17;1870472;76;22172;-61
2021/08/10 11:23:32;;;;;;;7.55;3.95;;;;;;;29.30;46.36;99044.06;1870632;76;22143;-61
2021/08/10 11:26:13;;;;;;;6.12;3.85;;;;;;;29.20;45.74;99042.48;1870661;76;22114;-55
2021/08/10 11:29:09;;;;;;;7.12;3.70;;;;;;;29.17;45.91;99035.55;1870662;76;22112;-58
2021/08/10 11:31:51;;;;;;;4.92;3.35;;;;;;;29.27;45.30;99038.95;1870660;76;22220;-61
2021/08/10 11:34:37;;;;;;;4.78;3.87;;;;;;;29.28;45.80;99036.18;1870550;76;22140;-62
2021/08/10 11:37:32;;;;;;;5.70;3.50;;;;;;;29.46;45.35;99035.45;1870465;76;22157;-60
2021/08/10 11:40:35;;;;;;;5.50;3.30;;;;;;;29.62;45.08;99017.55;1854816;76;30239;-60
2021/08/10 11:43:42;;;;;;;4.17;3.20;;;;;;;29.83;44.07;99019.75;1889892;76;22184;-56
2021/08/10 11:46:37;;;;;;;4.72;3.15;;;;;;;30.02;43.80;99029.53;1870580;76;22203;-56
2021/08/10 11:49:32;;;;;;;7.35;3.12;;;;;;;30.19;43.98;99028.36;1870401;76;22250;-61
2021/08/10 11:52:07;;;;;;;4.75;2.90;;;;;;;30.41;43.51;99021.10;1889977;76;22164;-55
2021/08/10 11:54:56;;;;;;;4.72;2.62;;;;;;;30.48;41.93;99024.17;1889960;76;22108;-58
2021/08/10 11:57:53;;;;;;;5.37;2.98;;;;;;;30.33;41.45;99028.78;1870683;76;22156;-65
2021/08/10 12:00:35;;;;;;;5.20;3.00;;;;;;;30.30;41.75;99020.98;1870457;76;22474;-59
2021/08/10 12:03:11;;;;;;;5.58;2.95;;;;;;;30.44;42.02;99034.69;1889988;76;22143;-54
2021/08/10 12:06:05;;;;;;;6.58;2.70;;;;;;;30.56;41.96;99027.63;1889941;76;22151;-52
2021/08/10 12:09:08;;;;;;;5.78;2.30;;;;;;;30.44;41.60;99018.70;1870707;76;22228;-58
2021/08/10 12:11:47;;;;;;;4.00;2.50;;;;;;;30.36;41.42;99016.58;1870723;76;22457;-59
2021/08/10 12:14:53;;;;;;;4.47;2.85;;;;;;;30.39;41.74;99016.36;1870441;76;22143;-65
2021/08/10 12:17:30;;;;;;;3.50;2.22;;;;;;;30.31;41.94;99013.88;1870682;76;22580;-62
2021/08/10 12:20:24;;;;;;;5.87;2.83;;;;;;;30.27;42.02;99017.20;1870565;76;20351;-56
2021/08/10 12:23:08;;;;;;;5.10;2.70;;;;;;;30.36;41.32;99012.58;1870632;76;22141;-57
2021/08/10 12:26:20;;;;;;;3.47;2.20;;;;;;;30.39;41.95;99018.17;1889906;76;22120;-62
2021/08/10 12:29:07;;;;;;;4.12;2.47;;;;;;;30.41;41.44;99006.94;1870705;76;22299;-56
2021/08/10 12:31:45;;;;;;;5.33;2.67;;;;;;;30.30;41.12;99002.34;1870760;76;20094;-63
2021/08/10 12:34:29;;;;;;;3.70;2.25;;;;;;;30.33;41.54;99007.48;1889963;76;22363;-66
2021/08/10 12:37:06;;;;;;;4.10;2.58;;;;;;;30.56;42.56;99012.97;1889925;76;22273;-55
2021/08/10 12:40:01;;;;;;;3.72;2.27;;;;;;;30.66;41.39;98980.76;1889872;76;22289;-60
2021/08/10 12:42:39;;;;;;;4.33;2.60;;;;;;;30.53;41.04;99004.72;1854898;76;28312;-57
2021/08/10 12:45:33;;;;;;;6.60;2.62;;;;;;;30.48;43.08;99006.86;1889887;76;22081;-57
2021/08/10 12:48:32;;;;;;;5.75;2.58;;;;;;;30.50;43.44;99011.12;1854719;76;27976;-55
2021/08/10 12:51:08;;;;;;;4.65;2.50;;;;;;;30.50;43.05;99008.94;1889969;76;22050;-61
2021/08/10 12:54:11;;;;;;;4.47;2.87;;;;;;;30.17;43.46;99004.13;1890019;76;22062;-56
2021/08/10 12:56:48;;;;;;;5.03;3.08;;;;;;;29.98;43.32;99003.23;1854583;76;28338;-59
2021/08/10 12:59:53;;;;;;;3.92;2.72;;;;;;;30.05;43.54;98992.05;1889878;76;22231;-57
2021/08/10 13:02:41;;;;;;;3.50;2.37;;;;;;;30.15;43.33;98992.73;1889932;76;22321;-58
2021/08/10 13:05:38;;;;;;;6.72;2.50;;;;;;;30.31;43.34;98996.08;1870590;76;22248;-64